Погода Пичукалькона 2 недели

Чьяпас, Мексика

27 февраля-10 марта
  • 27февраля
    Сегодня
    +18°
    +30°
    Ясно и безоблачно
    ВремяПогодаТемператураВлажностьДавлениеВетер, м/сВероятность осадков
    00:00Ясно и безоблачно+20°C97 %753 мм1.3 м/с2 %
    03:00Ясно и безоблачно+19°C96 %751 мм0.9 м/с2 %
    06:00Ясно и безоблачно+17°C95 %751 мм0.9 м/с2 %
    09:00Ясно и безоблачно+22°C81 %753 мм0.6 м/с2 %
    12:00Ясно и безоблачно+28°C71 %752 мм0.7 м/с2 %
    15:00Ясно и безоблачно+30°C61 %749 мм1.4 м/с2 %
    18:00Ясно и безоблачно+29°C71 %749 мм1.0 м/с2 %
    21:00Ясно и безоблачно+23°C89 %750 мм1.2 м/с2 %
  • 28февраля
    Среда
    +20°
    +33°
    Ясно и безоблачно
    ВремяПогодаТемператураВлажностьДавлениеВетер, м/сВероятность осадков
    00:00Ясно и безоблачно+21°C93 %750 мм1.6 м/с2 %
    03:00Практически безоблачно+20°C89 %749 мм1.3 м/с2 %
    06:00Ясно и безоблачно+18°C87 %749 мм1.1 м/с2 %
    09:00Ясно и безоблачно+25°C70 %751 мм0.5 м/с2 %
    12:00Ясно и безоблачно+30°C63 %751 мм1.4 м/с2 %
    15:00Ясно и безоблачно+32°C57 %749 мм2.4 м/с2 %
    18:00Ясно и безоблачно+29°C77 %750 мм1.6 м/с2 %
    21:00Ясно и безоблачно+24°C87 %751 мм1.2 м/с2 %
  • 29февраля
    Четверг
    +21°
    +30°
    Ясно и безоблачно
    ВремяПогодаТемператураВлажностьДавлениеВетер, м/сВероятность осадков
    00:00Ясно и безоблачно+22°C87 %752 мм0.8 м/с2 %
    03:00Ясно и безоблачно+22°C89 %752 мм0.9 м/с4 %
    06:00Ясно и безоблачно+20°C94 %753 мм1.0 м/с3 %
    09:00Облачно с прояснениями+24°C81 %755 мм1.8 м/с10 %
    12:00Практически безоблачно+29°C71 %754 мм2.0 м/с34 %
    15:00Ясно и безоблачно+29°C63 %752 мм2.8 м/с43 %
    18:00Практически безоблачно+29°C78 %752 мм1.5 м/с38 %
    21:00Ясно и безоблачно+25°C91 %754 мм1.4 м/с38 %
  • 01марта
    Пятница
    +20°
    +32°
    Небольшая облачность
    ВремяПогодаТемператураВлажностьДавлениеВетер, м/сВероятность осадков
    00:00Практически безоблачно+22°C99 %754 мм1.4 м/с23 %
    03:00Небольшая облачность+23°C99 %752 мм1.3 м/с31 %
    06:00Облачно с прояснениями+22°C98 %753 мм0.7 м/с12 %
    09:00Небольшая облачность+24°C81 %754 мм0.7 м/с32 %
    12:00Облачно с прояснениями+29°C63 %753 мм0.6 м/с31 %
    15:00Небольшая облачность+31°C56 %751 мм0.7 м/с16 %
    18:00Ясно и безоблачно+28°C75 %751 мм1.3 м/с4 %
    21:00Облачно с прояснениями+25°C84 %752 мм0.9 м/с2 %
Мы используем cookies
Соглашаюсь